createdAt,value
2023-05-04T00:00:08.303Z,17.43
2023-05-04T00:02:35.043Z,15.93
2023-05-04T00:05:01.889Z,17.83
2023-05-04T00:07:31.021Z,16.87
2023-05-04T00:09:57.687Z,16.73
2023-05-04T00:12:25.331Z,18.30
2023-05-04T00:14:51.905Z,17.80
2023-05-04T00:17:19.453Z,17.20
2023-05-04T00:19:47.378Z,16.93
2023-05-04T00:22:13.950Z,18.07
2023-05-04T00:24:40.562Z,17.17
2023-05-04T00:27:07.384Z,16.97
2023-05-04T00:29:34.014Z,17.80
2023-05-04T00:32:00.762Z,16.03
2023-05-04T00:34:27.489Z,16.67
2023-05-04T00:36:54.204Z,15.90
2023-05-04T00:39:20.770Z,16.53
2023-05-04T00:41:48.678Z,15.90
2023-05-04T00:44:15.382Z,17.23
2023-05-04T00:46:42.223Z,17.73
2023-05-04T00:49:08.979Z,16.17
2023-05-04T00:51:36.586Z,15.77
2023-05-04T00:54:03.205Z,16.53
2023-05-04T00:56:30.003Z,16.00
2023-05-04T00:58:57.936Z,15.67
2023-05-04T01:01:25.042Z,18.70
2023-05-04T01:03:53.160Z,15.00
2023-05-04T01:06:26.143Z,15.57
2023-05-04T01:09:13.887Z,14.83
2023-05-04T01:11:43.331Z,14.97
2023-05-04T01:14:10.277Z,16.07
2023-05-04T01:16:37.024Z,15.23
2023-05-04T01:19:04.022Z,15.43
2023-05-04T01:21:30.860Z,15.00
2023-05-04T01:23:57.759Z,14.33
2023-05-04T01:26:31.681Z,15.60
2023-05-04T01:28:59.658Z,15.57
2023-05-04T01:31:27.718Z,16.00
2023-05-04T01:33:54.441Z,15.60
2023-05-04T01:36:25.132Z,16.50
2023-05-04T01:38:55.892Z,15.70
2023-05-04T01:41:22.566Z,14.77
2023-05-04T02:15:44.105Z,13.37
2023-05-04T02:18:11.087Z,13.53
2023-05-04T02:20:37.900Z,14.73
2023-05-04T02:23:04.526Z,14.30
2023-05-04T02:25:31.091Z,16.93
2023-05-04T02:27:57.772Z,16.07
2023-05-04T02:30:24.451Z,14.53
2023-05-04T02:32:51.184Z,15.77
2023-05-04T02:35:18.144Z,15.13
2023-05-04T02:37:44.773Z,14.47
2023-05-04T02:40:11.797Z,14.53
2023-05-04T02:42:38.486Z,16.13
2023-05-04T02:45:07.707Z,15.67
2023-05-04T02:47:34.430Z,14.80
2023-05-04T02:50:01.395Z,14.20
2023-05-04T02:52:28.998Z,15.00
2023-05-04T02:54:55.784Z,13.83
2023-05-04T02:57:22.512Z,14.60
2023-05-04T02:59:54.319Z,13.27
2023-05-04T03:02:21.314Z,13.73
2023-05-04T03:04:48.182Z,13.77
2023-05-04T03:07:15.212Z,13.90
2023-05-04T03:09:41.865Z,13.37
2023-05-04T03:12:08.585Z,13.20
2023-05-04T03:14:36.132Z,13.73
2023-05-04T03:17:02.905Z,13.27
2023-05-04T03:19:29.950Z,12.83
2023-05-04T03:21:57.685Z,12.77
2023-05-04T03:24:25.025Z,12.83
2023-05-04T03:26:52.744Z,13.23
2023-05-04T03:29:20.245Z,13.90
2023-05-04T03:31:49.385Z,12.77
2023-05-04T03:34:21.636Z,12.80
2023-05-04T03:36:52.436Z,13.20
2023-05-04T03:39:19.852Z,12.97
2023-05-04T03:41:46.627Z,14.67
2023-05-04T03:44:13.362Z,13.63
2023-05-04T03:46:40.131Z,12.40
2023-05-04T03:49:07.137Z,13.43
2023-05-04T03:51:33.823Z,13.20
2023-05-04T03:54:01.357Z,13.13
2023-05-04T03:56:28.161Z,13.83
2023-05-04T03:58:57.038Z,12.60
2023-05-04T04:01:27.724Z,12.27
2023-05-04T04:03:55.392Z,13.00
2023-05-04T04:06:22.623Z,12.77
2023-05-04T04:08:49.340Z,12.67
2023-05-04T04:11:15.953Z,12.67
2023-05-04T04:13:42.758Z,13.60
2023-05-04T04:16:09.492Z,13.43
2023-05-04T04:18:36.318Z,13.03
2023-05-04T04:21:03.510Z,13.40
2023-05-04T04:23:30.144Z,13.43
2023-05-04T04:25:56.797Z,13.53
2023-05-04T04:28:23.582Z,14.07
2023-05-04T04:30:50.181Z,14.37
2023-05-04T04:33:17.965Z,12.90
2023-05-04T04:35:44.571Z,13.73
2023-05-04T04:38:11.686Z,13.70
2023-05-04T04:40:38.366Z,12.67
2023-05-04T04:43:05.026Z,13.27
2023-05-04T04:45:33.809Z,13.43
2023-05-04T04:48:01.102Z,12.67
2023-05-04T04:50:29.179Z,11.70
2023-05-04T04:52:56.287Z,12.80
2023-05-04T04:55:25.991Z,12.17
2023-05-04T04:57:54.594Z,11.17
2023-05-04T05:00:22.705Z,11.70
2023-05-04T05:02:49.712Z,11.80
2023-05-04T05:05:17.186Z,11.97
2023-05-04T05:07:44.142Z,11.77
2023-05-04T05:10:14.086Z,11.83
2023-05-04T05:12:41.565Z,11.40
2023-05-04T05:15:08.784Z,10.63
2023-05-04T05:17:37.564Z,10.43
2023-05-04T05:20:08.455Z,9.90
2023-05-04T05:22:35.168Z,11.20
2023-05-04T05:25:07.126Z,9.93
2023-05-04T05:27:34.599Z,7.37
2023-05-04T05:30:02.397Z,7.03
2023-05-04T05:32:31.050Z,6.40
2023-05-04T05:34:58.047Z,6.30
2023-05-04T05:37:25.010Z,6.30
2023-05-04T05:39:53.180Z,5.00
2023-05-04T05:42:20.353Z,5.17
2023-05-04T05:44:47.290Z,4.57
2023-05-04T05:47:19.162Z,4.13
2023-05-04T05:49:46.442Z,4.00
2023-05-04T05:52:13.730Z,4.13
2023-05-04T05:54:40.668Z,4.67
2023-05-04T05:57:07.300Z,4.37
2023-05-04T05:59:34.432Z,3.43
2023-05-04T06:02:01.541Z,3.83
2023-05-04T06:04:28.433Z,3.30
2023-05-04T06:06:55.477Z,3.50
2023-05-04T06:09:22.534Z,2.70
2023-05-04T06:11:49.681Z,3.03
2023-05-04T06:14:16.496Z,2.70
2023-05-04T06:16:43.309Z,2.73
2023-05-04T06:19:11.283Z,2.57
2023-05-04T06:21:38.247Z,3.37
2023-05-04T06:24:05.289Z,3.20
2023-05-04T06:26:32.600Z,2.70
2023-05-04T06:28:59.581Z,3.03
2023-05-04T06:31:26.267Z,2.73
2023-05-04T06:33:53.749Z,2.80
2023-05-04T06:36:20.627Z,2.73
2023-05-04T06:38:47.479Z,2.70
2023-05-04T06:41:14.561Z,3.13
2023-05-04T06:43:42.488Z,2.50
2023-05-04T06:46:13.778Z,2.97
2023-05-04T06:48:40.464Z,2.60
2023-05-04T06:51:07.116Z,2.60
2023-05-04T06:53:35.190Z,2.47
2023-05-04T06:56:02.796Z,2.30
2023-05-04T06:58:29.591Z,2.30
2023-05-04T07:00:56.201Z,2.30
2023-05-04T07:03:23.043Z,1.73
2023-05-04T07:05:51.141Z,1.77
2023-05-04T07:08:18.117Z,2.13
2023-05-04T07:10:44.949Z,2.20
2023-05-04T07:13:11.592Z,1.67
2023-05-04T07:15:39.258Z,1.63
2023-05-04T07:18:06.214Z,1.40
2023-05-04T07:20:33.189Z,2.10
2023-05-04T07:23:00.535Z,1.93
2023-05-04T07:25:27.370Z,1.70
2023-05-04T07:27:54.139Z,2.13
2023-05-04T07:30:21.034Z,1.93
2023-05-04T07:32:47.658Z,1.50
2023-05-04T07:35:14.845Z,1.77
2023-05-04T07:37:41.637Z,2.20
2023-05-04T07:40:08.667Z,1.53
2023-05-04T07:42:35.909Z,2.30
2023-05-04T07:45:03.976Z,2.03
2023-05-04T07:47:30.829Z,1.73
2023-05-04T07:49:57.561Z,2.00
2023-05-04T07:52:24.715Z,1.67
2023-05-04T07:54:52.702Z,1.40
2023-05-04T07:57:19.523Z,1.97
2023-05-04T07:59:47.538Z,1.77
2023-05-04T08:02:16.936Z,2.10
2023-05-04T08:04:46.092Z,2.10
2023-05-04T08:07:12.899Z,1.50
2023-05-04T08:09:39.595Z,1.97
2023-05-04T08:12:06.495Z,1.90
2023-05-04T08:14:35.756Z,2.00
2023-05-04T08:17:04.472Z,1.87
2023-05-04T08:19:31.275Z,2.50
2023-05-04T08:22:00.916Z,1.93
2023-05-04T08:24:27.700Z,3.27
2023-05-04T08:27:07.033Z,2.43
2023-05-04T08:29:37.690Z,2.37
2023-05-04T08:32:04.936Z,2.10
2023-05-04T08:34:32.523Z,1.93
2023-05-04T08:36:59.312Z,2.00
2023-05-04T08:39:26.113Z,2.30
2023-05-04T08:41:52.904Z,1.90
2023-05-04T08:44:19.865Z,2.23
2023-05-04T08:46:52.362Z,2.10
2023-05-04T08:49:20.346Z,2.10
2023-05-04T08:51:48.288Z,2.40
2023-05-04T08:54:15.190Z,2.33
2023-05-04T08:56:42.898Z,1.57
2023-05-04T08:59:18.102Z,2.37
2023-05-04T09:01:47.878Z,2.40
2023-05-04T09:04:14.742Z,2.17
2023-05-04T09:06:41.583Z,2.00
2023-05-04T09:09:08.540Z,1.90
2023-05-04T09:11:35.543Z,1.70
2023-05-04T09:14:02.376Z,2.00
2023-05-04T09:16:40.977Z,2.00
2023-05-04T09:19:17.544Z,1.73
2023-05-04T09:21:45.146Z,1.70
2023-05-04T09:24:12.818Z,2.03
2023-05-04T09:26:39.690Z,2.00
2023-05-04T09:29:13.726Z,1.70
2023-05-04T09:31:47.462Z,2.67
2023-05-04T09:34:15.195Z,1.80
2023-05-04T09:36:45.143Z,1.40
2023-05-04T09:39:15.168Z,1.53
2023-05-04T09:41:42.071Z,1.50
2023-05-04T09:44:19.172Z,1.70
2023-05-04T09:46:55.649Z,1.50
2023-05-04T09:49:33.697Z,1.33
2023-05-04T09:52:03.382Z,1.90
2023-05-04T09:54:35.106Z,1.70
2023-05-04T09:57:05.778Z,1.30
2023-05-04T09:59:32.384Z,1.20
2023-05-04T10:02:04.816Z,1.50
2023-05-04T10:04:37.786Z,1.20
2023-05-04T10:07:04.701Z,1.60
2023-05-04T10:09:32.399Z,1.47
2023-05-04T10:12:00.505Z,1.50
2023-05-04T10:14:34.132Z,1.57
2023-05-04T10:17:01.202Z,1.60
2023-05-04T10:19:41.759Z,1.47
2023-05-04T10:22:28.662Z,1.70
2023-05-04T10:25:19.308Z,1.30
2023-05-04T10:28:06.185Z,1.67
2023-05-04T10:30:32.988Z,1.50
2023-05-04T10:33:00.443Z,1.67
2023-05-04T10:35:28.012Z,1.60
2023-05-04T10:37:55.381Z,1.80
2023-05-04T10:40:37.403Z,1.90
2023-05-04T10:43:05.410Z,1.30
2023-05-04T10:45:38.883Z,1.57
2023-05-04T10:48:08.076Z,1.40
2023-05-04T10:50:48.132Z,1.40
2023-05-04T10:53:15.365Z,1.13
2023-05-04T10:55:42.813Z,1.10
2023-05-04T10:58:11.370Z,1.40
2023-05-04T11:00:41.751Z,1.73
2023-05-04T11:03:08.556Z,1.60
2023-05-04T11:05:42.556Z,1.60
2023-05-04T11:08:16.448Z,1.50
2023-05-04T11:10:44.629Z,1.30
2023-05-04T11:13:12.246Z,1.40
2023-05-04T11:15:48.454Z,2.00
2023-05-04T11:18:15.454Z,1.70
2023-05-04T11:20:42.979Z,1.33
2023-05-04T11:23:10.563Z,1.57
2023-05-04T11:25:37.713Z,1.40
2023-05-04T11:28:04.879Z,1.40
2023-05-04T11:30:33.391Z,1.43
2023-05-04T11:33:05.326Z,1.77
2023-05-04T11:35:32.444Z,1.87
2023-05-04T11:37:59.351Z,1.83
2023-05-04T11:40:27.028Z,1.40
2023-05-04T11:42:56.651Z,1.20
2023-05-04T11:45:24.656Z,1.50
2023-05-04T11:47:52.229Z,1.53
2023-05-04T11:50:20.976Z,1.60
2023-05-04T11:52:47.754Z,1.30
2023-05-04T11:55:27.590Z,1.10
2023-05-04T11:58:04.409Z,1.40
2023-05-04T12:00:35.484Z,1.70
2023-05-04T12:03:02.477Z,1.40
2023-05-04T12:05:31.066Z,1.50
2023-05-04T12:07:58.108Z,1.63
2023-05-04T12:10:25.599Z,1.30
2023-05-04T12:12:53.786Z,2.00
2023-05-04T12:15:36.739Z,1.90
2023-05-04T12:18:03.760Z,1.77
2023-05-04T12:20:30.607Z,2.00
2023-05-04T12:22:57.657Z,1.67
2023-05-04T12:25:25.874Z,1.77
2023-05-04T12:27:53.144Z,1.57
2023-05-04T12:30:19.929Z,1.53
2023-05-04T12:32:52.607Z,1.43
2023-05-04T12:35:19.716Z,2.17
2023-05-04T12:37:46.461Z,1.87
2023-05-04T12:40:27.397Z,1.20
2023-05-04T12:42:55.231Z,1.70
2023-05-04T12:45:22.803Z,1.80
2023-05-04T12:47:49.863Z,2.10
2023-05-04T12:50:16.622Z,1.40
2023-05-04T12:52:44.603Z,1.83
2023-05-04T12:55:11.286Z,1.73
2023-05-04T12:57:38.389Z,1.70
2023-05-04T13:00:11.231Z,1.97
2023-05-04T13:02:38.538Z,1.90
2023-05-04T13:05:05.632Z,1.60
2023-05-04T13:07:32.529Z,1.93
2023-05-04T13:09:59.306Z,1.93
2023-05-04T13:12:26.823Z,2.03
2023-05-04T13:14:55.587Z,1.90
2023-05-04T13:17:22.293Z,1.73
2023-05-04T13:19:48.907Z,1.60
2023-05-04T13:22:18.071Z,1.90
2023-05-04T13:24:44.865Z,1.87
2023-05-04T13:27:11.819Z,1.80
2023-05-04T13:29:39.173Z,1.70
2023-05-04T13:32:06.736Z,1.80
2023-05-04T13:34:34.431Z,1.90
2023-05-04T13:37:03.221Z,1.90
2023-05-04T13:39:30.020Z,1.73
2023-05-04T13:41:56.859Z,1.90
2023-05-04T13:44:23.551Z,2.87
2023-05-04T13:46:50.197Z,2.10
2023-05-04T13:49:16.843Z,1.97
2023-05-04T13:51:44.158Z,2.10
2023-05-04T13:54:10.853Z,1.90
2023-05-04T13:56:37.793Z,2.30
2023-05-04T13:59:04.580Z,2.00
2023-05-04T14:01:31.322Z,1.77
2023-05-04T14:03:58.188Z,1.70
2023-05-04T14:06:27.184Z,2.00
2023-05-04T14:08:53.998Z,1.90
2023-05-04T14:11:20.675Z,1.90
2023-05-04T14:13:48.719Z,1.60
2023-05-04T14:16:15.541Z,1.57
2023-05-04T14:18:42.423Z,1.67
2023-05-04T14:21:10.532Z,1.63
2023-05-04T14:23:37.638Z,1.70
2023-05-04T14:26:04.566Z,1.90
2023-05-04T14:28:31.749Z,1.40
2023-05-04T14:30:58.638Z,1.50
2023-05-04T14:33:25.433Z,1.57
2023-05-04T14:35:53.322Z,1.50
2023-05-04T14:38:20.020Z,1.53
2023-05-04T14:40:48.981Z,2.27
2023-05-04T14:43:17.655Z,1.53
2023-05-04T14:45:44.282Z,1.47
2023-05-04T14:48:11.064Z,1.30
2023-05-04T14:50:37.859Z,1.30
2023-05-04T14:53:04.556Z,1.33
2023-05-04T14:55:33.774Z,2.07
2023-05-04T14:58:01.398Z,1.70
2023-05-04T15:00:28.133Z,1.17
2023-05-04T15:02:56.229Z,1.50
2023-05-04T15:05:22.913Z,1.57
2023-05-04T15:07:49.584Z,2.00
2023-05-04T15:10:16.325Z,1.20
2023-05-04T15:12:44.343Z,1.20
2023-05-04T15:15:11.372Z,1.80
2023-05-04T15:17:38.587Z,1.67
2023-05-04T15:20:07.254Z,1.33
2023-05-04T15:22:34.668Z,2.00
2023-05-04T15:25:01.964Z,1.77
2023-05-04T15:27:29.585Z,1.50
2023-05-04T15:29:56.354Z,1.27
2023-05-04T15:32:23.098Z,1.40
2023-05-04T15:35:03.688Z,2.23
2023-05-04T15:37:32.395Z,1.57
2023-05-04T15:40:02.347Z,1.60
2023-05-04T15:42:31.892Z,1.87
2023-05-04T15:44:58.677Z,3.40
2023-05-04T15:47:26.378Z,3.20
2023-05-04T15:49:54.169Z,2.40
2023-05-04T15:52:20.947Z,1.40
2023-05-04T15:54:47.790Z,1.17
2023-05-04T15:57:16.056Z,1.40
2023-05-04T15:59:42.973Z,1.30
2023-05-04T16:02:10.113Z,2.00
2023-05-04T16:04:36.828Z,1.73
2023-05-04T16:07:03.615Z,5.87
2023-05-04T16:09:31.494Z,1.33
2023-05-04T16:11:58.137Z,1.30
2023-05-04T16:14:24.766Z,2.10
2023-05-04T16:16:57.519Z,2.00
2023-05-04T16:19:25.169Z,2.37
2023-05-04T16:21:51.776Z,3.87
2023-05-04T16:24:18.513Z,1.77
2023-05-04T16:26:45.376Z,1.37
2023-05-04T16:29:12.311Z,1.30
2023-05-04T16:31:39.208Z,1.47
2023-05-04T16:34:06.103Z,1.40
2023-05-04T16:36:32.731Z,1.27
2023-05-04T16:38:59.505Z,1.40
2023-05-04T16:41:26.161Z,1.00
2023-05-04T16:43:52.994Z,1.17
2023-05-04T16:46:21.234Z,12.67
2023-05-04T16:48:48.090Z,1.20
2023-05-04T16:51:14.830Z,1.17
2023-05-04T16:53:41.850Z,1.77
2023-05-04T16:56:08.723Z,1.00
2023-05-04T16:58:36.278Z,1.17
2023-05-04T17:01:03.164Z,1.00
2023-05-04T17:03:32.862Z,3.53
2023-05-04T17:05:59.570Z,2.60
2023-05-04T17:08:26.196Z,1.40
2023-05-04T17:10:52.948Z,1.03
2023-05-04T17:13:19.658Z,1.00
2023-05-04T17:15:46.743Z,1.40
2023-05-04T17:18:13.479Z,1.63
2023-05-04T17:20:40.221Z,1.80
2023-05-04T17:23:07.508Z,2.20
2023-05-04T17:25:34.293Z,1.80
2023-05-04T17:28:01.130Z,1.90
2023-05-04T17:30:27.859Z,1.63
2023-05-04T17:32:57.146Z,1.70
2023-05-04T17:35:26.321Z,1.80
2023-05-04T17:37:59.255Z,2.20
2023-05-04T17:40:27.399Z,3.00
2023-05-04T17:42:54.661Z,1.40
2023-05-04T17:45:23.003Z,1.37
2023-05-04T17:47:53.109Z,1.70
2023-05-04T17:50:20.244Z,1.60
2023-05-04T17:52:51.105Z,1.83
2023-05-04T17:55:17.818Z,1.57
2023-05-04T17:57:44.510Z,1.70
2023-05-04T18:00:11.498Z,1.47
2023-05-04T18:02:38.430Z,1.80
2023-05-04T18:05:06.455Z,1.63
2023-05-04T18:07:33.158Z,2.17
2023-05-04T18:10:02.236Z,1.77
2023-05-04T18:12:28.926Z,1.93
2023-05-04T18:14:55.837Z,1.93
2023-05-04T18:17:24.846Z,2.03
2023-05-04T18:19:52.432Z,2.80
2023-05-04T18:22:20.797Z,2.00
2023-05-04T18:24:49.764Z,2.97
2023-05-04T18:27:16.641Z,3.40
2023-05-04T18:29:44.293Z,2.37
2023-05-04T18:32:11.811Z,2.43
2023-05-04T18:34:38.694Z,2.40
2023-05-04T18:37:10.276Z,3.30
2023-05-04T18:39:38.087Z,3.17
2023-05-04T18:42:04.789Z,3.00
2023-05-04T18:44:36.305Z,3.30
2023-05-04T18:47:03.960Z,2.77
2023-05-04T18:49:30.572Z,5.07
2023-05-04T18:51:57.254Z,4.63
2023-05-04T18:54:23.914Z,4.30
2023-05-04T18:56:50.894Z,3.50
2023-05-04T18:59:17.585Z,3.73
2023-05-04T19:01:44.446Z,4.00
2023-05-04T19:04:11.154Z,4.73
2023-05-04T19:06:37.864Z,5.03
2023-05-04T19:09:06.095Z,4.47
2023-05-04T19:11:32.758Z,10.43
2023-05-04T19:13:59.516Z,6.63
2023-05-04T19:16:27.236Z,8.83
2023-05-04T19:18:53.956Z,8.33
2023-05-04T19:21:20.705Z,8.50
2023-05-04T19:23:49.689Z,3.80
2023-05-04T19:26:19.443Z,14.13
2023-05-04T19:28:47.382Z,4.30
2023-05-04T19:31:16.402Z,8.20
2023-05-04T19:33:48.555Z,3.50
2023-05-04T19:36:16.317Z,8.17
2023-05-04T19:38:43.708Z,9.43
2023-05-04T19:41:11.450Z,5.10
2023-05-04T19:43:39.056Z,3.80
2023-05-04T19:46:05.864Z,3.40
2023-05-04T19:48:33.009Z,4.43
2023-05-04T19:51:03.108Z,3.77
2023-05-04T19:53:31.172Z,4.30
2023-05-04T19:55:59.312Z,4.23
2023-05-04T19:58:28.218Z,5.10
2023-05-04T20:00:55.157Z,4.70
2023-05-04T20:03:22.204Z,4.47
2023-05-04T20:05:50.704Z,4.77
2023-05-04T20:08:17.882Z,5.00
2023-05-04T20:10:44.654Z,4.90
2023-05-04T20:13:12.841Z,5.13
2023-05-04T20:15:40.425Z,4.63
2023-05-04T20:18:07.236Z,5.00
2023-05-04T20:20:36.220Z,5.23
2023-05-04T20:23:03.322Z,5.07
2023-05-04T20:25:30.137Z,4.17
2023-05-04T20:27:57.131Z,3.67
2023-05-04T20:30:28.111Z,4.13
2023-05-04T20:32:55.440Z,4.00
2023-05-04T20:39:22.215Z,3.40
2023-05-04T20:50:36.385Z,2.80
2023-05-04T21:31:40.484Z,2.60
2023-05-04T21:34:07.944Z,2.17
2023-05-04T21:36:34.574Z,2.23
2023-05-04T21:39:01.310Z,2.00
2023-05-04T21:41:27.928Z,2.47
2023-05-04T21:43:54.620Z,2.03
2023-05-04T21:46:21.267Z,1.90
2023-05-04T21:48:47.992Z,2.03
2023-05-04T21:51:14.720Z,1.90
2023-05-04T21:53:43.709Z,1.70
2023-05-04T21:56:10.711Z,2.30
2023-05-04T21:58:39.617Z,2.07
2023-05-04T22:01:07.070Z,1.93
2023-05-04T22:03:33.793Z,2.03
2023-05-04T22:06:00.575Z,2.27
2023-05-04T22:08:29.121Z,1.90
2023-05-04T22:10:56.127Z,1.83
2023-05-04T22:13:22.804Z,1.80
2023-05-04T22:15:50.609Z,1.80
2023-05-04T22:18:17.766Z,1.97
2023-05-04T22:20:44.510Z,1.53
2023-05-04T22:23:11.266Z,2.10
2023-05-04T22:25:38.059Z,1.83
2023-05-04T22:28:04.813Z,1.80
2023-05-04T22:30:33.838Z,1.70
2023-05-04T22:33:00.503Z,1.63
2023-05-04T22:35:27.370Z,1.77
2023-05-04T22:37:54.071Z,1.70
2023-05-04T22:40:20.959Z,1.70
2023-05-04T22:42:47.660Z,1.80
2023-05-04T22:45:16.003Z,1.53
2023-05-04T22:47:42.726Z,1.53
2023-05-04T22:50:09.778Z,1.70
2023-05-04T22:52:37.738Z,1.87
2023-05-04T22:55:04.684Z,1.80
2023-05-04T22:57:31.480Z,1.70
2023-05-04T22:59:58.964Z,2.00
2023-05-04T23:02:25.828Z,1.60
2023-05-04T23:04:53.306Z,1.87
2023-05-04T23:07:20.356Z,2.03
2023-05-04T23:09:47.044Z,1.83
2023-05-04T23:12:13.859Z,1.70
2023-05-04T23:14:40.557Z,1.73
2023-05-04T23:17:07.747Z,1.93
2023-05-04T23:19:34.343Z,1.60
2023-05-04T23:22:01.111Z,2.00
2023-05-04T23:24:27.781Z,1.90
2023-05-04T23:26:54.448Z,2.10
2023-05-04T23:29:21.288Z,1.93
2023-05-04T23:31:47.961Z,1.83
2023-05-04T23:34:14.631Z,1.97
2023-05-04T23:36:41.363Z,2.00
2023-05-04T23:39:08.033Z,1.87
2023-05-04T23:41:34.899Z,1.83
2023-05-04T23:44:02.772Z,2.67
2023-05-04T23:46:29.571Z,2.00
2023-05-04T23:48:56.191Z,2.27
2023-05-04T23:51:22.846Z,2.43
2023-05-04T23:53:49.488Z,2.50
2023-05-04T23:56:16.108Z,2.20
2023-05-04T23:58:42.860Z,2.30
